createdAt,value
2022-09-09T00:00:18.985Z,0.90
2022-09-09T00:02:47.680Z,0.70
2022-09-09T00:05:23.865Z,0.70
2022-09-09T00:07:51.756Z,0.70
2022-09-09T00:10:27.684Z,0.82
2022-09-09T00:13:01.795Z,1.02
2022-09-09T00:15:32.406Z,0.65
2022-09-09T00:18:04.604Z,0.90
2022-09-09T00:20:38.160Z,1.02
2022-09-09T00:23:13.960Z,1.08
2022-09-09T00:25:45.107Z,0.80
2022-09-09T00:28:17.463Z,0.90
2022-09-09T00:30:42.592Z,0.98
2022-09-09T00:33:15.948Z,0.90
2022-09-09T00:35:43.781Z,1.08
2022-09-09T00:38:15.089Z,0.80
2022-09-09T00:40:48.787Z,1.15
2022-09-09T00:43:31.046Z,0.90
2022-09-09T00:46:24.787Z,1.00
2022-09-09T00:48:59.111Z,1.17
2022-09-09T00:51:36.833Z,1.15
2022-09-09T00:54:16.945Z,1.02
2022-09-09T00:56:49.411Z,0.82
2022-09-09T00:59:28.615Z,1.08
2022-09-09T01:01:55.016Z,1.13
2022-09-09T01:04:25.098Z,1.10
2022-09-09T01:06:54.228Z,1.27
2022-09-09T01:09:24.664Z,1.35
2022-09-09T01:12:01.315Z,1.67
2022-09-09T01:14:45.287Z,1.55
2022-09-09T01:17:20.579Z,1.90
2022-09-09T01:20:05.211Z,1.83
2022-09-09T01:22:50.278Z,1.75
2022-09-09T01:25:30.942Z,2.30
2022-09-09T01:28:10.922Z,2.00
2022-09-09T01:30:39.731Z,2.50
2022-09-09T01:33:06.151Z,3.60
2022-09-09T01:35:44.168Z,3.63
2022-09-09T01:38:08.286Z,4.30
2022-09-09T01:40:31.707Z,3.97
2022-09-09T01:42:55.438Z,3.90
2022-09-09T01:45:20.261Z,3.72
2022-09-09T01:47:44.385Z,3.70
2022-09-09T01:50:18.610Z,2.90
2022-09-09T01:52:42.025Z,3.20
2022-09-09T01:55:10.780Z,2.25
2022-09-09T01:57:49.486Z,2.40
2022-09-09T02:00:15.536Z,2.20
2022-09-09T02:02:51.629Z,1.80
2022-09-09T02:05:32.456Z,1.95
2022-09-09T02:08:05.626Z,1.45
2022-09-09T02:10:45.536Z,1.10
2022-09-09T02:13:19.780Z,1.30
2022-09-09T02:15:53.982Z,1.27
2022-09-09T02:18:26.822Z,1.50
2022-09-09T02:20:50.501Z,1.08
2022-09-09T02:23:14.969Z,1.10
2022-09-09T02:25:42.271Z,1.17
2022-09-09T02:28:17.557Z,1.10
2022-09-09T02:30:43.752Z,1.08
2022-09-09T02:33:11.539Z,1.13
2022-09-09T02:35:44.756Z,1.15
2022-09-09T02:38:13.515Z,1.05
2022-09-09T02:40:40.946Z,0.93
2022-09-09T02:43:04.315Z,1.20
2022-09-09T02:45:38.841Z,1.48
2022-09-09T02:48:12.564Z,1.08
2022-09-09T02:50:39.441Z,1.30
2022-09-09T02:53:18.197Z,1.38
2022-09-09T02:55:49.298Z,1.33
2022-09-09T02:58:19.132Z,1.20
2022-09-09T03:00:53.543Z,1.20
2022-09-09T03:03:19.142Z,1.33
2022-09-09T03:05:44.459Z,1.40
2022-09-09T03:08:10.283Z,1.60
2022-09-09T03:10:34.135Z,1.10
2022-09-09T03:12:57.483Z,1.50
2022-09-09T03:15:23.360Z,1.27
2022-09-09T03:17:46.578Z,1.60
2022-09-09T03:20:11.145Z,1.42
2022-09-09T03:22:35.211Z,1.50
2022-09-09T03:24:59.750Z,1.40
2022-09-09T03:27:25.062Z,1.33
2022-09-09T03:29:52.580Z,1.27
2022-09-09T03:32:20.069Z,1.48
2022-09-09T03:34:43.568Z,1.60
2022-09-09T03:37:09.490Z,1.60
2022-09-09T03:39:33.149Z,1.38
2022-09-09T03:41:58.082Z,1.50
2022-09-09T03:44:21.796Z,1.75
2022-09-09T03:46:45.220Z,1.50
2022-09-09T03:49:08.662Z,1.60
2022-09-09T03:51:32.048Z,1.77
2022-09-09T03:53:56.440Z,1.77
2022-09-09T03:56:19.678Z,1.30
2022-09-09T03:58:44.728Z,1.50
2022-09-09T04:01:14.361Z,1.42
2022-09-09T04:03:39.168Z,1.60
2022-09-09T04:06:07.906Z,1.50
2022-09-09T04:08:32.589Z,2.08
2022-09-09T04:10:58.951Z,1.73
2022-09-09T04:13:23.801Z,1.60
2022-09-09T04:15:53.541Z,1.60
2022-09-09T04:18:19.948Z,1.85
2022-09-09T04:20:44.239Z,1.38
2022-09-09T04:23:08.329Z,1.67
2022-09-09T04:25:31.588Z,2.05
2022-09-09T04:27:56.325Z,1.80
2022-09-09T04:30:19.767Z,2.08
2022-09-09T04:32:44.477Z,2.00
2022-09-09T04:35:08.469Z,1.77
2022-09-09T04:37:31.974Z,1.73
2022-09-09T04:39:56.141Z,1.67
2022-09-09T04:42:20.554Z,1.80
2022-09-09T04:44:44.705Z,2.15
2022-09-09T04:47:08.034Z,1.80
2022-09-09T04:49:33.036Z,1.63
2022-09-09T04:51:57.056Z,1.65
2022-09-09T04:54:20.416Z,1.70
2022-09-09T04:56:44.346Z,1.70
2022-09-09T04:59:08.333Z,2.03
2022-09-09T05:01:41.698Z,1.80
2022-09-09T05:04:07.093Z,1.90
2022-09-09T05:06:32.815Z,1.77
2022-09-09T05:08:58.210Z,1.60
2022-09-09T05:11:27.455Z,2.10
2022-09-09T05:13:57.139Z,2.08
2022-09-09T05:16:21.883Z,2.30
2022-09-09T05:18:46.983Z,1.80
2022-09-09T05:21:10.314Z,1.83
2022-09-09T05:23:38.987Z,1.92
2022-09-09T05:26:03.573Z,2.70
2022-09-09T05:28:28.090Z,2.20
2022-09-09T05:30:59.286Z,2.05
2022-09-09T05:33:26.668Z,2.20
2022-09-09T05:35:50.078Z,1.98
2022-09-09T05:38:15.136Z,1.80
2022-09-09T05:40:43.407Z,2.40
2022-09-09T05:43:10.042Z,2.38
2022-09-09T05:45:33.442Z,2.10
2022-09-09T05:47:58.253Z,2.20
2022-09-09T05:50:21.694Z,2.03
2022-09-09T05:52:49.003Z,2.13
2022-09-09T05:55:12.296Z,2.03
2022-09-09T05:57:36.907Z,2.25
2022-09-09T06:00:01.409Z,2.10
2022-09-09T06:02:24.796Z,2.08
2022-09-09T06:04:48.245Z,2.22
2022-09-09T06:07:11.719Z,2.35
2022-09-09T06:09:35.126Z,1.83
2022-09-09T06:11:59.196Z,2.47
2022-09-09T06:14:25.207Z,2.50
2022-09-09T06:16:49.291Z,2.00
2022-09-09T06:19:21.498Z,2.47
2022-09-09T06:21:45.486Z,2.50
2022-09-09T06:24:09.600Z,2.20
2022-09-09T06:26:35.505Z,2.35
2022-09-09T06:29:00.662Z,2.22
2022-09-09T06:31:31.341Z,2.20
2022-09-09T06:34:00.664Z,2.53
2022-09-09T06:36:26.029Z,2.38
2022-09-09T06:38:50.067Z,2.88
2022-09-09T06:41:15.699Z,2.20
2022-09-09T06:43:40.593Z,2.33
2022-09-09T06:46:09.300Z,2.22
2022-09-09T06:48:34.656Z,2.33
2022-09-09T06:51:07.090Z,1.83
2022-09-09T06:53:30.990Z,2.20
2022-09-09T06:55:55.710Z,2.10
2022-09-09T06:58:19.715Z,2.00
2022-09-09T07:00:43.376Z,2.00
2022-09-09T07:03:15.574Z,2.20
2022-09-09T07:05:40.288Z,1.90
2022-09-09T07:08:06.423Z,1.80
2022-09-09T07:10:30.286Z,1.90
2022-09-09T07:12:54.197Z,1.92
2022-09-09T07:15:20.472Z,1.80
2022-09-09T07:17:43.710Z,1.67
2022-09-09T07:20:08.026Z,2.00
2022-09-09T07:22:33.080Z,1.95
2022-09-09T07:24:56.642Z,2.15
2022-09-09T07:27:20.269Z,2.13
2022-09-09T07:29:46.607Z,2.00
2022-09-09T07:32:10.280Z,1.95
2022-09-09T07:34:35.190Z,2.00
2022-09-09T07:36:59.355Z,1.83
2022-09-09T07:39:24.267Z,1.60
2022-09-09T07:41:52.083Z,2.10
2022-09-09T07:44:22.445Z,1.85
2022-09-09T07:46:48.969Z,1.95
2022-09-09T07:49:17.237Z,2.15
2022-09-09T07:51:43.803Z,2.10
2022-09-09T07:54:11.044Z,1.50
2022-09-09T07:56:40.172Z,2.03
2022-09-09T07:59:05.769Z,2.03
2022-09-09T08:01:39.926Z,1.90
2022-09-09T08:04:08.079Z,1.30
2022-09-09T08:06:34.164Z,1.73
2022-09-09T08:08:58.292Z,1.85
2022-09-09T08:11:23.957Z,1.67
2022-09-09T08:13:53.785Z,1.63
2022-09-09T08:16:22.675Z,1.83
2022-09-09T08:18:46.741Z,1.55
2022-09-09T08:21:13.790Z,1.88
2022-09-09T08:23:38.202Z,1.50
2022-09-09T08:26:07.339Z,1.55
2022-09-09T08:28:31.983Z,1.88
2022-09-09T08:30:56.733Z,2.25
2022-09-09T08:33:20.454Z,1.95
2022-09-09T08:35:53.819Z,1.58
2022-09-09T08:38:17.351Z,1.70
2022-09-09T08:40:47.342Z,1.88
2022-09-09T08:43:11.241Z,1.38
2022-09-09T08:45:40.267Z,1.63
2022-09-09T08:48:21.082Z,1.60
2022-09-09T08:50:47.914Z,1.80
2022-09-09T08:53:22.766Z,1.58
2022-09-09T08:55:50.507Z,1.73
2022-09-09T08:58:21.071Z,1.70
2022-09-09T09:01:20.029Z,1.88
2022-09-09T09:03:59.182Z,1.67
2022-09-09T09:06:42.214Z,1.70
2022-09-09T09:09:16.195Z,2.03
2022-09-09T09:11:43.174Z,1.42
2022-09-09T09:14:14.470Z,1.75
2022-09-09T09:16:50.223Z,1.63
2022-09-09T09:19:17.828Z,1.60
2022-09-09T09:21:45.885Z,1.40
2022-09-09T09:24:21.369Z,1.70
2022-09-09T09:26:46.009Z,1.45
2022-09-09T09:29:15.963Z,1.50
2022-09-09T09:31:39.266Z,1.70
2022-09-09T09:34:03.447Z,1.63
2022-09-09T09:36:42.347Z,1.30
2022-09-09T09:41:55.518Z,1.27
2022-09-09T09:44:27.806Z,1.75
2022-09-09T09:46:52.324Z,1.27
2022-09-09T09:49:15.749Z,1.20
2022-09-09T09:51:41.961Z,1.55
2022-09-09T09:54:17.785Z,1.40
2022-09-09T09:56:46.925Z,1.52
2022-09-09T09:59:41.609Z,1.70
2022-09-09T10:02:25.757Z,1.40
2022-09-09T10:05:05.468Z,1.50
2022-09-09T10:07:34.292Z,1.30
2022-09-09T10:09:59.831Z,1.30
2022-09-09T10:12:35.970Z,1.13
2022-09-09T10:15:07.043Z,1.10
2022-09-09T10:17:40.206Z,0.98
2022-09-09T10:20:23.553Z,1.02
2022-09-09T10:22:53.862Z,1.13
2022-09-09T10:25:46.676Z,1.35
2022-09-09T10:28:38.847Z,1.30
2022-09-09T10:31:19.004Z,1.27
2022-09-09T10:33:52.571Z,1.58
2022-09-09T10:36:22.924Z,1.50
2022-09-09T10:38:49.605Z,1.38
2022-09-09T10:41:20.605Z,1.48
2022-09-09T10:44:20.175Z,1.35
2022-09-09T10:46:56.361Z,1.73
2022-09-09T10:49:32.445Z,1.15
2022-09-09T10:52:07.243Z,1.52
2022-09-09T10:54:46.879Z,1.48
2022-09-09T10:57:15.867Z,1.35
2022-09-09T10:59:44.028Z,1.38
2022-09-09T11:02:17.605Z,1.40
2022-09-09T11:04:46.025Z,1.27
2022-09-09T11:07:13.332Z,1.13
2022-09-09T11:09:44.928Z,1.38
2022-09-09T11:12:14.680Z,1.20
2022-09-09T11:14:45.599Z,1.10
2022-09-09T11:17:14.959Z,1.17
2022-09-09T11:19:41.208Z,1.13
2022-09-09T11:22:10.908Z,1.30
2022-09-09T11:24:41.617Z,1.38
2022-09-09T11:27:13.101Z,1.42
2022-09-09T11:30:05.606Z,1.50
2022-09-09T11:33:03.633Z,1.10
2022-09-09T11:35:40.877Z,1.27
2022-09-09T11:38:19.732Z,1.45
2022-09-09T11:40:44.544Z,0.90
2022-09-09T11:43:13.794Z,1.15
2022-09-09T11:45:38.961Z,1.10
2022-09-09T11:48:04.277Z,1.13
2022-09-09T11:50:37.506Z,1.27
2022-09-09T11:53:24.406Z,0.95
2022-09-09T11:55:49.626Z,1.27
2022-09-09T11:58:21.399Z,0.90
2022-09-09T12:00:47.149Z,0.90
2022-09-09T12:03:38.117Z,1.00
2022-09-09T12:06:02.627Z,1.10
2022-09-09T12:08:30.638Z,1.10
2022-09-09T12:11:01.134Z,1.10
2022-09-09T12:13:27.681Z,0.98
2022-09-09T12:15:54.255Z,1.10
2022-09-09T12:18:26.227Z,1.00
2022-09-09T12:20:59.922Z,1.00
2022-09-09T12:23:34.858Z,1.08
2022-09-09T12:26:24.484Z,0.88
2022-09-09T12:29:00.693Z,1.17
2022-09-09T12:31:33.087Z,1.42
2022-09-09T12:33:56.399Z,1.50
2022-09-09T12:36:24.329Z,1.40
2022-09-09T12:38:48.934Z,1.30
2022-09-09T12:41:24.248Z,1.30
2022-09-09T12:43:48.624Z,0.93
2022-09-09T12:46:23.550Z,1.55
2022-09-09T12:48:47.373Z,1.10
2022-09-09T12:51:22.202Z,1.45
2022-09-09T12:53:47.004Z,1.63
2022-09-09T12:56:24.020Z,1.63
2022-09-09T12:58:50.543Z,1.52
2022-09-09T13:01:25.311Z,1.40
2022-09-09T13:03:49.180Z,1.67
2022-09-09T13:06:28.045Z,1.63
2022-09-09T13:08:53.354Z,1.40
2022-09-09T13:11:23.448Z,1.60
2022-09-09T13:13:54.565Z,1.20
2022-09-09T13:16:25.029Z,1.20
2022-09-09T13:18:48.505Z,1.23
2022-09-09T13:21:11.900Z,1.30
2022-09-09T13:23:38.764Z,1.30
2022-09-09T13:26:04.989Z,1.60
2022-09-09T13:28:33.908Z,1.10
2022-09-09T13:31:03.886Z,1.17
2022-09-09T13:33:34.201Z,1.30
2022-09-09T13:36:00.215Z,1.40
2022-09-09T13:38:27.805Z,1.17
2022-09-09T13:40:58.583Z,1.15
2022-09-09T13:43:26.110Z,1.17
2022-09-09T13:46:02.172Z,1.30
2022-09-09T13:48:26.597Z,1.65
2022-09-09T13:50:58.205Z,1.33
2022-09-09T13:53:21.662Z,1.50
2022-09-09T13:55:48.270Z,1.25
2022-09-09T13:58:19.215Z,1.30
2022-09-09T14:00:42.866Z,1.40
2022-09-09T14:03:08.590Z,1.20
2022-09-09T14:05:34.881Z,1.50
2022-09-09T14:07:58.904Z,1.20
2022-09-09T14:10:23.400Z,1.50
2022-09-09T14:12:47.649Z,1.30
2022-09-09T14:15:13.824Z,1.50
2022-09-09T14:17:37.525Z,1.40
2022-09-09T14:20:02.486Z,1.60
2022-09-09T14:22:26.417Z,0.90
2022-09-09T14:24:50.048Z,0.65
2022-09-09T14:27:13.617Z,0.73
2022-09-09T14:29:41.212Z,0.77
2022-09-09T14:32:08.323Z,0.90
2022-09-09T14:34:34.373Z,0.70
2022-09-09T14:36:59.455Z,0.73
2022-09-09T14:39:22.860Z,0.50
2022-09-09T14:41:47.494Z,0.57
2022-09-09T14:44:19.211Z,0.88
2022-09-09T14:46:43.861Z,0.75
2022-09-09T14:49:07.184Z,1.48
2022-09-09T14:51:31.737Z,1.08
2022-09-09T14:53:58.802Z,0.80
2022-09-09T14:56:25.601Z,0.93
2022-09-09T14:58:49.971Z,1.02
2022-09-09T15:01:15.947Z,0.88
2022-09-09T15:03:39.617Z,0.82
2022-09-09T15:06:09.631Z,1.00
2022-09-09T15:08:33.044Z,0.88
2022-09-09T15:11:04.138Z,1.00
2022-09-09T15:13:27.590Z,0.70
2022-09-09T15:15:52.187Z,0.63
2022-09-09T15:18:16.977Z,0.80
2022-09-09T15:20:47.419Z,0.70
2022-09-09T15:23:11.967Z,0.90
2022-09-09T15:25:35.183Z,0.65
2022-09-09T15:28:19.275Z,1.67
2022-09-09T15:30:46.854Z,0.80
2022-09-09T15:33:13.039Z,0.90
2022-09-09T15:43:49.853Z,0.60
2022-09-09T15:46:47.250Z,0.65
2022-09-09T15:49:47.572Z,0.77
2022-09-09T15:52:35.810Z,0.80
2022-09-09T15:55:33.787Z,0.95
2022-09-09T15:58:27.899Z,0.88
2022-09-09T16:09:09.422Z,0.82
2022-09-09T16:11:36.012Z,1.00
2022-09-09T16:13:59.608Z,0.75
2022-09-09T16:16:26.678Z,0.80
2022-09-09T16:18:52.789Z,0.95
2022-09-09T16:21:36.242Z,0.80
2022-09-09T16:24:32.841Z,0.88
2022-09-09T16:26:57.382Z,0.75
2022-09-09T16:29:22.447Z,1.20
2022-09-09T16:31:49.181Z,1.30
2022-09-09T16:34:13.440Z,1.20
2022-09-09T16:36:40.016Z,1.45
2022-09-09T16:39:06.742Z,1.20
2022-09-09T16:41:31.547Z,1.05
2022-09-09T16:43:56.318Z,1.50
2022-09-09T16:46:22.483Z,1.50
2022-09-09T16:48:50.211Z,1.17
2022-09-09T16:51:18.581Z,1.45
2022-09-09T16:53:43.583Z,1.60
2022-09-09T16:56:09.347Z,1.48
2022-09-09T16:58:33.232Z,1.33
2022-09-09T17:01:00.856Z,1.40
2022-09-09T17:03:24.958Z,1.15
2022-09-09T17:05:49.875Z,1.45
2022-09-09T17:08:13.315Z,1.13
2022-09-09T17:10:37.171Z,1.63
2022-09-09T17:13:00.943Z,1.75
2022-09-09T17:15:24.483Z,1.42
2022-09-09T17:17:50.176Z,1.40
2022-09-09T17:20:14.107Z,1.50
2022-09-09T17:22:39.046Z,1.35
2022-09-09T17:25:02.800Z,1.60
2022-09-09T17:27:27.175Z,1.35
2022-09-09T17:29:50.650Z,1.55
2022-09-09T17:32:14.277Z,1.17
2022-09-09T17:34:38.911Z,1.25
2022-09-09T17:37:02.442Z,1.50
2022-09-09T17:39:27.471Z,1.30
2022-09-09T17:41:51.251Z,1.50
2022-09-09T17:44:15.957Z,1.60
2022-09-09T17:46:42.182Z,1.60
2022-09-09T17:49:09.716Z,1.77
2022-09-09T17:51:35.347Z,1.48
2022-09-09T17:54:02.038Z,1.77
2022-09-09T17:56:29.261Z,1.38
2022-09-09T17:58:54.181Z,1.75
2022-09-09T18:01:20.054Z,1.70
2022-09-09T18:03:45.244Z,1.33
2022-09-09T18:06:13.736Z,1.67
2022-09-09T18:08:38.354Z,1.90
2022-09-09T18:11:01.796Z,1.60
2022-09-09T18:13:26.842Z,1.60
2022-09-09T18:15:50.641Z,1.63
2022-09-09T18:18:15.428Z,1.90
2022-09-09T18:20:39.102Z,1.70
2022-09-09T18:23:02.758Z,1.67
2022-09-09T18:25:26.353Z,1.75
2022-09-09T18:27:49.853Z,1.70
2022-09-09T18:30:15.429Z,1.95
2022-09-09T18:32:38.977Z,1.88
2022-09-09T18:35:02.551Z,1.52
2022-09-09T18:37:26.141Z,2.20
2022-09-09T18:39:50.370Z,1.70
2022-09-09T18:42:13.933Z,1.50
2022-09-09T18:44:37.995Z,1.55
2022-09-09T18:47:04.105Z,2.08
2022-09-09T18:49:28.219Z,1.55
2022-09-09T18:51:52.119Z,1.38
2022-09-09T18:54:19.598Z,1.45
2022-09-09T18:56:43.756Z,1.60
2022-09-09T18:59:11.221Z,1.50
2022-09-09T19:01:36.491Z,1.70
2022-09-09T19:04:02.521Z,1.60
2022-09-09T19:06:31.281Z,1.90
2022-09-09T19:08:59.134Z,1.70
2022-09-09T19:11:28.853Z,1.50
2022-09-09T19:13:54.722Z,1.58
2022-09-09T19:16:19.450Z,1.67
2022-09-09T19:18:44.828Z,1.88
2022-09-09T19:21:18.119Z,1.60
2022-09-09T19:23:42.455Z,1.70
2022-09-09T19:26:07.389Z,1.60
2022-09-09T19:28:30.974Z,1.73
2022-09-09T19:30:56.402Z,1.73
2022-09-09T19:33:20.366Z,1.67
2022-09-09T19:35:44.230Z,1.50
2022-09-09T19:38:09.093Z,1.88
2022-09-09T19:40:32.602Z,1.58
2022-09-09T19:42:56.430Z,2.03
2022-09-09T19:45:20.141Z,1.92
2022-09-09T19:47:44.003Z,1.60
2022-09-09T19:50:08.991Z,1.80
2022-09-09T19:52:32.602Z,1.92
2022-09-09T19:54:57.948Z,1.73
2022-09-09T19:57:22.294Z,1.80
2022-09-09T19:59:45.957Z,2.05
2022-09-09T20:02:11.178Z,1.85
2022-09-09T20:04:35.290Z,1.92
2022-09-09T20:06:59.116Z,1.88
2022-09-09T20:09:25.778Z,1.92
2022-09-09T20:11:51.390Z,2.03
2022-09-09T20:14:15.667Z,1.95
2022-09-09T20:16:39.834Z,1.92
2022-09-09T20:19:05.865Z,1.83
2022-09-09T20:21:32.350Z,1.92
2022-09-09T20:23:56.609Z,1.92
2022-09-09T20:26:22.546Z,1.60
2022-09-09T20:28:50.281Z,1.73
2022-09-09T20:31:19.044Z,1.67
2022-09-09T20:33:44.301Z,1.67
2022-09-09T20:36:12.694Z,1.15
2022-09-09T20:38:38.256Z,1.10
2022-09-09T20:41:04.634Z,1.20
2022-09-09T20:43:28.459Z,1.30
2022-09-09T20:45:54.146Z,1.25
2022-09-09T20:48:17.623Z,1.30
2022-09-09T20:50:41.133Z,1.35
2022-09-09T20:53:04.909Z,1.50
2022-09-09T20:55:28.373Z,1.38
2022-09-09T20:57:51.925Z,1.33
2022-09-09T21:00:16.101Z,1.13
2022-09-09T21:02:41.047Z,1.20
2022-09-09T21:05:04.946Z,1.63
2022-09-09T21:07:28.987Z,1.05
2022-09-09T21:09:52.463Z,1.38
2022-09-09T21:12:16.767Z,1.33
2022-09-09T21:14:40.295Z,1.30
2022-09-09T21:17:04.299Z,1.63
2022-09-09T21:19:29.497Z,1.30
2022-09-09T21:21:53.209Z,1.70
2022-09-09T21:24:17.029Z,1.48
2022-09-09T21:26:40.665Z,1.60
2022-09-09T21:29:04.194Z,1.48
2022-09-09T21:31:28.685Z,1.77
2022-09-09T21:33:52.622Z,1.63
2022-09-09T21:36:17.601Z,1.83
2022-09-09T21:38:41.834Z,1.70
2022-09-09T21:41:07.418Z,2.00
2022-09-09T21:43:31.319Z,1.95
2022-09-09T21:45:54.826Z,1.92
2022-09-09T21:48:19.780Z,1.88
2022-09-09T21:50:48.010Z,2.10
2022-09-09T21:53:15.772Z,2.00
2022-09-09T21:55:42.326Z,2.25
2022-09-09T21:58:06.609Z,2.60
2022-09-09T22:00:30.259Z,2.30
2022-09-09T22:02:53.982Z,2.42
2022-09-09T22:05:17.811Z,2.40
2022-09-09T22:07:42.568Z,2.30
2022-09-09T22:10:10.038Z,2.50
2022-09-09T22:12:34.397Z,2.10
2022-09-09T22:14:58.224Z,2.00
2022-09-09T22:17:24.451Z,2.03
2022-09-09T22:19:48.393Z,2.00
2022-09-09T22:22:11.928Z,2.00
2022-09-09T22:24:35.698Z,2.00
2022-09-09T22:27:01.264Z,1.67
2022-09-09T22:29:24.763Z,1.98
2022-09-09T22:31:48.223Z,2.00
2022-09-09T22:34:11.646Z,1.88
2022-09-09T22:36:35.395Z,1.98
2022-09-09T22:38:59.062Z,1.98
2022-09-09T22:41:22.859Z,1.73
2022-09-09T22:43:49.083Z,1.88
2022-09-09T22:46:13.612Z,2.05
2022-09-09T22:48:38.910Z,2.28
2022-09-09T22:51:04.518Z,1.92
2022-09-09T22:53:28.131Z,1.70
2022-09-09T22:55:59.661Z,1.83
2022-09-09T22:58:23.278Z,2.10
2022-09-09T23:00:48.223Z,2.00
2022-09-09T23:03:11.831Z,2.05
2022-09-09T23:05:35.327Z,1.80
2022-09-09T23:07:58.991Z,2.15
2022-09-09T23:10:23.588Z,2.38
2022-09-09T23:12:47.828Z,2.70
2022-09-09T23:15:12.573Z,2.22
2022-09-09T23:17:37.515Z,1.95
2022-09-09T23:20:01.059Z,2.10
2022-09-09T23:22:25.220Z,2.20
2022-09-09T23:24:49.144Z,1.90
2022-09-09T23:27:12.788Z,1.83
2022-09-09T23:29:36.282Z,1.80
2022-09-09T23:31:59.843Z,1.58
2022-09-09T23:34:24.723Z,1.60
2022-09-09T23:36:48.399Z,1.55
2022-09-09T23:39:13.362Z,1.33
2022-09-09T23:41:40.240Z,1.10
2022-09-09T23:44:04.548Z,1.30
2022-09-09T23:46:30.242Z,1.25
2022-09-09T23:48:54.005Z,1.20
2022-09-09T23:51:23.690Z,1.00
2022-09-09T23:53:51.259Z,1.10
2022-09-09T23:56:14.758Z,0.90
2022-09-09T23:58:38.311Z,1.00
